VEAT/IXA METAR and TAF weather

Enter ICAO airport designator
Station Type Date Time Source
VEAT METAR 2019/12/10 14:00 UTC NOAA

VEAT 101400Z 00000KT 3500 BR FEW020 SCT100 18/17 Q1014 BECMG 3000 BR


Station Type Date Time Source
VEAT Decoded METAR 2019/12/10 14:00 UTC NOAA

Agartala, India (VEAT) 23-53N 091-15E 16M
Dec 10, 2019 - 09:00 AM EST / 2019.12.10 1400 UTC
Wind: Calm:0
Visibility: 2 mile(s):0
Sky conditions: partly cloudy
Weather: mist
Temperature: 64 F (18 C)
Dew Point: 62 F (17 C)
Relative Humidity: 93%
Pressure (altimeter): 29.94 in. Hg (1014 hPa)
ob: VEAT 101400Z 00000KT 3500 BR FEW020 SCT100 18/17 Q1014 BECMG 3000 BR
cycle: 14

Station Type Date Time Source
VEAT TAF 2013/07/19 12:00 UTC NOAA

TAF VEAT 190900Z 1912/1921 16008KT 5000 HZ SCT018 FEW030CB BKN100
TEMPO 1912/1921 3000 -TSRA SCT015 FEW025CB OVC090

Example: see airport list